createdAt,value
2023-04-15T00:01:59.192Z,7.93
2023-04-15T00:04:27.991Z,8.23
2023-04-15T00:06:55.265Z,6.70
2023-04-15T00:09:22.973Z,7.10
2023-04-15T00:11:50.765Z,7.15
2023-04-15T00:14:17.983Z,6.72
2023-04-15T00:16:45.206Z,6.78
2023-04-15T00:19:13.255Z,6.50
2023-04-15T00:21:40.721Z,5.80
2023-04-15T00:24:08.498Z,7.18
2023-04-15T00:26:35.974Z,5.95
2023-04-15T00:29:03.589Z,6.30
2023-04-15T00:31:31.776Z,6.47
2023-04-15T00:33:59.810Z,6.30
2023-04-15T00:36:27.076Z,5.87
2023-04-15T00:38:54.683Z,6.05
2023-04-15T00:41:23.211Z,6.40
2023-04-15T00:43:50.473Z,6.87
2023-04-15T00:46:20.768Z,6.70
2023-04-15T00:48:48.443Z,7.35
2023-04-15T00:51:16.235Z,6.72
2023-04-15T00:53:43.838Z,7.25
2023-04-15T00:56:11.689Z,6.32
2023-04-15T00:58:38.951Z,6.75
2023-04-15T01:01:06.540Z,7.55
2023-04-15T01:03:34.638Z,7.55
2023-04-15T01:06:04.081Z,6.80
2023-04-15T01:08:31.911Z,7.28
2023-04-15T01:11:02.288Z,7.20
2023-04-15T01:13:31.314Z,6.53
2023-04-15T01:15:58.687Z,7.87
2023-04-15T01:18:26.336Z,6.60
2023-04-15T01:20:53.934Z,6.93
2023-04-15T01:25:53.571Z,5.80
2023-04-15T01:28:21.399Z,6.30
2023-04-15T01:30:48.692Z,5.90
2023-04-15T01:33:16.305Z,7.45
2023-04-15T01:35:44.872Z,6.03
2023-04-15T01:38:13.737Z,6.25
2023-04-15T01:40:41.219Z,6.05
2023-04-15T01:43:08.343Z,5.28
2023-04-15T01:45:36.425Z,5.80
2023-04-15T01:48:04.896Z,6.40
2023-04-15T01:50:32.231Z,5.95
2023-04-15T01:52:59.318Z,7.05
2023-04-15T01:55:27.138Z,6.75
2023-04-15T01:57:54.272Z,6.43
2023-04-15T02:00:22.424Z,8.25
2023-04-15T02:02:49.992Z,7.25
2023-04-15T02:05:17.353Z,6.12
2023-04-15T02:07:48.568Z,5.40
2023-04-15T02:10:16.902Z,6.18
2023-04-15T02:12:44.313Z,6.82
2023-04-15T02:15:11.796Z,6.45
2023-04-15T02:17:39.255Z,6.30
2023-04-15T02:20:09.277Z,7.70
2023-04-15T02:22:36.420Z,6.40
2023-04-15T02:25:04.386Z,5.75
2023-04-15T02:27:32.952Z,5.90
2023-04-15T02:30:02.369Z,5.53
2023-04-15T02:32:30.152Z,5.82
2023-04-15T02:34:57.653Z,5.70
2023-04-15T02:37:27.282Z,5.72
2023-04-15T02:42:23.325Z,5.35
2023-04-15T02:44:50.720Z,6.37
2023-04-15T02:47:18.993Z,6.43
2023-04-15T02:49:46.210Z,5.55
2023-04-15T02:52:14.078Z,5.90
2023-04-15T02:54:41.531Z,6.82
2023-04-15T02:57:08.908Z,6.53
2023-04-15T02:59:36.114Z,6.60
2023-04-15T03:02:03.823Z,7.28
2023-04-15T03:04:31.367Z,6.75
2023-04-15T03:06:58.556Z,6.43
2023-04-15T03:09:26.923Z,6.15
2023-04-15T03:11:54.891Z,5.32
2023-04-15T03:14:22.807Z,6.32
2023-04-15T03:16:52.048Z,6.32
2023-04-15T03:19:19.618Z,6.20
2023-04-15T03:21:46.763Z,5.93
2023-04-15T03:24:14.513Z,5.60
2023-04-15T03:26:41.698Z,6.05
2023-04-15T03:29:09.208Z,4.85
2023-04-15T03:31:37.133Z,5.93
2023-04-15T03:34:04.430Z,5.32
2023-04-15T03:36:34.899Z,5.12
2023-04-15T03:39:02.650Z,5.93
2023-04-15T03:41:29.966Z,5.93
2023-04-15T03:43:57.440Z,5.45
2023-04-15T03:46:25.031Z,5.93
2023-04-15T03:48:52.250Z,6.05
2023-04-15T03:51:19.560Z,6.70
2023-04-15T03:53:47.111Z,6.25
2023-04-15T03:56:14.293Z,5.10
2023-04-15T03:58:41.620Z,5.32
2023-04-15T04:01:09.970Z,5.95
2023-04-15T04:03:38.045Z,6.28
2023-04-15T04:06:05.289Z,5.55
2023-04-15T04:08:32.532Z,5.90
2023-04-15T04:11:00.285Z,6.03
2023-04-15T04:13:27.724Z,6.18
2023-04-15T04:15:54.964Z,6.75
2023-04-15T04:18:22.695Z,5.32
2023-04-15T04:20:50.066Z,6.18
2023-04-15T04:23:17.287Z,5.50
2023-04-15T04:25:44.784Z,7.75
2023-04-15T04:28:12.176Z,7.47
2023-04-15T04:30:39.837Z,6.47
2023-04-15T04:33:07.667Z,5.78
2023-04-15T04:35:37.724Z,5.60
2023-04-15T04:38:05.192Z,6.75
2023-04-15T04:40:32.642Z,7.97
2023-04-15T04:43:00.437Z,7.65
2023-04-15T04:45:27.675Z,6.68
2023-04-15T04:47:55.798Z,6.35
2023-04-15T04:50:23.053Z,5.70
2023-04-15T04:52:50.666Z,6.12
2023-04-15T04:55:18.366Z,4.93
2023-04-15T04:57:45.668Z,6.03
2023-04-15T05:00:14.143Z,5.87
2023-04-15T05:02:44.090Z,6.40
2023-04-15T05:05:12.140Z,5.47
2023-04-15T05:07:39.776Z,5.30
2023-04-15T05:10:08.342Z,5.68
2023-04-15T05:12:37.453Z,5.53
2023-04-15T05:15:06.547Z,5.50
2023-04-15T05:17:35.424Z,5.85
2023-04-15T05:20:03.490Z,5.97
2023-04-15T05:22:31.007Z,5.35
2023-04-15T05:24:58.647Z,5.20
2023-04-15T05:27:26.137Z,5.35
2023-04-15T05:29:53.370Z,5.00
2023-04-15T05:32:20.915Z,4.82
2023-04-15T05:34:48.187Z,4.68
2023-04-15T05:37:15.705Z,5.53
2023-04-15T05:39:43.243Z,5.87
2023-04-15T05:42:10.782Z,5.25
2023-04-15T05:44:38.064Z,5.18
2023-04-15T05:47:07.293Z,4.65
2023-04-15T05:49:34.565Z,4.57
2023-04-15T05:52:02.121Z,4.25
2023-04-15T05:54:29.961Z,4.28
2023-04-15T05:56:58.413Z,4.18
2023-04-15T05:59:26.028Z,3.97
2023-04-15T06:01:53.815Z,4.20
2023-04-15T06:04:22.003Z,4.12
2023-04-15T06:06:49.373Z,3.80
2023-04-15T06:09:19.643Z,4.05
2023-04-15T06:11:47.312Z,3.33
2023-04-15T06:14:14.767Z,2.80
2023-04-15T06:16:42.558Z,3.45
2023-04-15T06:19:10.065Z,3.03
2023-04-15T06:21:37.270Z,2.85
2023-04-15T06:24:04.578Z,3.45
2023-04-15T06:26:32.149Z,3.12
2023-04-15T06:28:59.727Z,7.57
2023-04-15T06:31:27.312Z,3.92
2023-04-15T06:33:54.931Z,3.62
2023-04-15T06:36:22.169Z,3.70
2023-04-15T06:38:49.286Z,3.92
2023-04-15T06:41:16.824Z,3.03
2023-04-15T06:43:44.822Z,4.15
2023-04-15T06:46:12.049Z,4.00
2023-04-15T06:48:39.883Z,3.37
2023-04-15T06:51:07.084Z,2.80
2023-04-15T06:53:35.676Z,3.10
2023-04-15T06:56:03.252Z,4.68
2023-04-15T06:58:30.579Z,3.05
2023-04-15T07:00:57.762Z,3.35
2023-04-15T07:03:25.299Z,2.78
2023-04-15T07:05:52.727Z,2.65
2023-04-15T07:08:20.700Z,2.75
2023-04-15T07:10:48.120Z,2.50
2023-04-15T07:13:15.279Z,3.25
2023-04-15T07:15:42.361Z,2.78
2023-04-15T07:18:09.935Z,2.47
2023-04-15T07:20:37.366Z,3.00
2023-04-15T07:23:04.467Z,1.90
2023-04-15T07:25:32.055Z,2.22
2023-04-15T07:27:59.264Z,2.33
2023-04-15T07:30:26.431Z,3.20
2023-04-15T07:32:54.608Z,3.20
2023-04-15T07:35:22.314Z,3.92
2023-04-15T07:37:49.589Z,3.62
2023-04-15T07:40:17.166Z,4.70
2023-04-15T07:42:44.529Z,3.47
2023-04-15T07:45:12.884Z,3.72
2023-04-15T07:47:41.716Z,2.92
2023-04-15T07:50:11.209Z,4.32
2023-04-15T07:52:41.384Z,4.37
2023-04-15T07:57:36.977Z,5.20
2023-04-15T08:00:05.875Z,4.50
2023-04-15T08:02:40.647Z,3.28
2023-04-15T08:05:09.363Z,3.42
2023-04-15T08:07:38.474Z,2.37
2023-04-15T08:10:06.498Z,2.30
2023-04-15T08:12:33.967Z,1.75
2023-04-15T08:15:02.181Z,1.92
2023-04-15T08:17:29.559Z,1.70
2023-04-15T08:19:57.373Z,1.80
2023-04-15T08:22:24.628Z,1.35
2023-04-15T08:34:20.417Z,2.05
2023-04-15T08:36:48.230Z,1.90
2023-04-15T08:39:15.596Z,2.62
2023-04-15T08:41:50.724Z,2.40
2023-04-15T08:44:18.766Z,2.20
2023-04-15T08:46:49.140Z,1.95
2023-04-15T08:49:18.198Z,2.45
2023-04-15T08:51:45.993Z,2.10
2023-04-15T08:54:13.535Z,2.85
2023-04-15T08:56:41.131Z,3.60
2023-04-15T08:59:09.890Z,3.50
2023-04-15T09:01:38.431Z,3.40
2023-04-15T09:04:08.277Z,2.90
2023-04-15T09:06:35.891Z,2.62
2023-04-15T09:09:04.393Z,1.25
2023-04-15T09:11:31.788Z,1.30
2023-04-15T09:13:59.280Z,1.27
2023-04-15T09:16:27.446Z,1.48
2023-04-15T09:18:55.086Z,1.05
2023-04-15T09:21:25.631Z,1.67
2023-04-15T09:24:00.659Z,1.20
2023-04-15T09:26:36.168Z,1.12
2023-04-15T09:29:11.025Z,0.80
2023-04-15T09:31:38.598Z,0.82
2023-04-15T09:37:36.950Z,1.40
2023-04-15T09:40:05.023Z,3.75
2023-04-15T09:42:32.660Z,1.17
2023-04-15T09:48:31.300Z,1.30
2023-04-15T09:54:37.403Z,1.00
2023-04-15T09:57:10.574Z,0.68
2023-04-15T09:59:38.281Z,0.80
2023-04-15T10:02:09.268Z,0.95
2023-04-15T10:04:40.784Z,2.42
2023-04-15T10:07:13.041Z,1.42
2023-04-15T10:09:40.994Z,0.73
2023-04-15T10:12:09.214Z,1.08
2023-04-15T10:14:38.888Z,2.85
2023-04-15T10:17:08.397Z,1.20
2023-04-15T10:19:37.710Z,1.77
2023-04-15T10:22:05.382Z,1.40
2023-04-15T10:24:33.445Z,2.10
2023-04-15T10:27:01.816Z,1.60
2023-04-15T10:29:29.525Z,0.82
2023-04-15T10:31:57.717Z,3.20
2023-04-15T10:37:55.467Z,0.82
2023-04-15T10:40:33.649Z,21.58
2023-04-15T10:43:02.481Z,2.40
2023-04-15T10:45:37.685Z,1.77
2023-04-15T10:51:41.877Z,2.00
2023-04-15T10:54:17.722Z,1.23
2023-04-15T10:56:45.568Z,1.50
2023-04-15T10:59:13.318Z,1.48
2023-04-15T11:02:05.656Z,2.65
2023-04-15T11:08:04.100Z,1.77
2023-04-15T11:13:52.597Z,0.88
2023-04-15T11:16:20.340Z,1.63
2023-04-15T11:18:55.945Z,1.30
2023-04-15T11:21:26.203Z,2.15
2023-04-15T11:23:53.530Z,6.07
2023-04-15T11:26:27.394Z,1.52
2023-04-15T11:28:57.067Z,1.42
2023-04-15T11:31:27.945Z,1.00
2023-04-15T11:33:58.260Z,1.87
2023-04-15T11:36:37.321Z,1.62
2023-04-15T11:39:07.670Z,2.90
2023-04-15T11:41:37.861Z,1.40
2023-04-15T11:46:45.609Z,1.70
2023-04-15T11:49:26.618Z,1.10
2023-04-15T11:51:57.201Z,1.70
2023-04-15T11:54:26.665Z,3.03
2023-04-15T11:56:54.711Z,1.30
2023-04-15T11:59:21.855Z,3.37
2023-04-15T12:01:51.195Z,2.17
2023-04-15T12:04:25.560Z,7.75
2023-04-15T12:06:53.331Z,1.40
2023-04-15T12:09:22.143Z,1.52
2023-04-15T12:15:24.060Z,7.10
2023-04-15T12:21:23.818Z,2.03
2023-04-15T12:23:53.328Z,1.70
2023-04-15T12:26:36.166Z,2.45
2023-04-15T12:29:17.095Z,2.47
2023-04-15T12:31:49.977Z,1.67
2023-04-15T12:34:34.920Z,1.58
2023-04-15T12:37:03.917Z,2.33
2023-04-15T12:39:38.755Z,3.33
2023-04-15T12:42:07.112Z,2.20
2023-04-15T12:44:35.842Z,2.22
2023-04-15T12:47:09.014Z,2.15
2023-04-15T12:49:42.092Z,1.80
2023-04-15T12:52:16.034Z,1.55
2023-04-15T12:55:03.318Z,4.22
2023-04-15T12:57:30.926Z,2.60
2023-04-15T12:59:58.079Z,5.10
2023-04-15T13:06:05.887Z,2.47
2023-04-15T13:08:33.383Z,2.35
2023-04-15T13:11:01.634Z,1.80
2023-04-15T13:13:28.867Z,3.00
2023-04-15T13:16:02.363Z,2.47
2023-04-15T13:18:31.288Z,2.70
2023-04-15T13:20:59.050Z,1.77
2023-04-15T13:23:28.573Z,2.15
2023-04-15T13:29:29.001Z,2.20
2023-04-15T13:31:56.921Z,1.27
2023-04-15T13:34:26.520Z,1.75
2023-04-15T13:36:53.707Z,3.30
2023-04-15T13:39:21.223Z,1.80
2023-04-15T13:41:48.695Z,2.10
2023-04-15T13:44:16.300Z,1.15
2023-04-15T13:50:17.742Z,1.45
2023-04-15T13:52:48.331Z,2.10
2023-04-15T13:55:20.603Z,2.50
2023-04-15T13:57:50.682Z,6.72
2023-04-15T14:00:17.993Z,2.87
2023-04-15T14:02:46.135Z,2.50
2023-04-15T14:05:15.748Z,1.20
2023-04-15T14:07:45.245Z,1.37
2023-04-15T14:10:12.979Z,2.05
2023-04-15T14:12:40.639Z,1.10
2023-04-15T14:15:08.289Z,2.10
2023-04-15T14:17:36.335Z,1.50
2023-04-15T14:20:04.221Z,1.50
2023-04-15T14:22:33.782Z,2.97
2023-04-15T14:25:02.062Z,2.50
2023-04-15T14:27:29.379Z,1.52
2023-04-15T14:29:58.070Z,1.73
2023-04-15T14:32:27.382Z,2.72
2023-04-15T14:34:54.908Z,3.30
2023-04-15T14:40:55.686Z,2.95
2023-04-15T14:43:25.618Z,3.12
2023-04-15T14:45:54.056Z,3.47
2023-04-15T14:48:23.988Z,3.00
2023-04-15T14:50:52.979Z,2.85
2023-04-15T14:53:21.156Z,2.85
2023-04-15T14:55:48.335Z,4.90
2023-04-15T14:58:16.870Z,3.78
2023-04-15T15:00:44.909Z,2.53
2023-04-15T15:03:13.460Z,2.53
2023-04-15T15:05:45.209Z,2.10
2023-04-15T15:08:13.305Z,1.70
2023-04-15T15:10:49.348Z,1.62
2023-04-15T15:13:18.042Z,1.70
2023-04-15T15:15:46.064Z,2.58
2023-04-15T15:18:15.762Z,3.33
2023-04-15T15:20:43.622Z,2.60
2023-04-15T15:23:11.726Z,3.40
2023-04-15T15:25:39.342Z,3.78
2023-04-15T15:28:07.072Z,3.72
2023-04-15T15:30:37.006Z,3.47
2023-04-15T15:33:07.386Z,2.97
2023-04-15T15:35:35.096Z,6.03
2023-04-15T15:38:05.132Z,3.00
2023-04-15T15:40:32.353Z,3.35
2023-04-15T15:43:00.339Z,5.25
2023-04-15T15:48:59.274Z,3.72
2023-04-15T15:55:00.156Z,3.78
2023-04-15T15:57:28.357Z,4.05
2023-04-15T16:00:10.581Z,4.07
2023-04-15T16:05:12.113Z,4.50
2023-04-15T16:07:40.415Z,4.80
2023-04-15T16:10:11.255Z,4.30
2023-04-15T16:15:07.216Z,5.20
2023-04-15T16:17:34.833Z,3.85
2023-04-15T16:20:08.363Z,3.62
2023-04-15T16:22:38.706Z,3.87
2023-04-15T16:25:09.288Z,3.28
2023-04-15T16:27:50.348Z,3.45
2023-04-15T16:30:25.147Z,3.37
2023-04-15T16:32:52.883Z,3.03
2023-04-15T16:35:20.664Z,2.58
2023-04-15T16:40:41.757Z,2.42
2023-04-15T16:43:11.708Z,1.77
2023-04-15T16:45:39.217Z,1.55
2023-04-15T16:48:07.338Z,1.87
2023-04-15T16:50:37.318Z,1.50
2023-04-15T16:53:08.667Z,2.78
2023-04-15T16:55:36.359Z,1.50
2023-04-15T16:58:07.985Z,1.75
2023-04-15T17:00:36.946Z,1.60
2023-04-15T17:03:05.791Z,6.30
2023-04-15T17:05:33.623Z,2.70
2023-04-15T17:08:01.481Z,2.25
2023-04-15T17:10:28.833Z,3.90
2023-04-15T17:12:57.281Z,3.62
2023-04-15T17:15:25.098Z,4.05
2023-04-15T17:17:54.127Z,4.15
2023-04-15T17:20:23.977Z,4.28
2023-04-15T17:22:53.529Z,4.43
2023-04-15T17:28:06.136Z,4.25
2023-04-15T17:30:33.957Z,4.37
2023-04-15T17:33:03.685Z,15.18
2023-04-15T17:35:52.709Z,7.00
2023-04-15T17:38:20.315Z,8.13
2023-04-15T17:40:48.364Z,7.07
2023-04-15T17:43:17.266Z,6.85
2023-04-15T17:45:47.688Z,6.90
2023-04-15T17:48:15.954Z,6.82
2023-04-15T17:50:44.230Z,6.55
2023-04-15T17:53:14.560Z,5.28
2023-04-15T17:55:43.368Z,5.40
2023-04-15T17:58:11.911Z,6.15
2023-04-15T18:00:40.046Z,9.70
2023-04-15T18:03:08.557Z,9.20
2023-04-15T18:05:42.428Z,9.20
2023-04-15T18:08:10.364Z,8.73
2023-04-15T18:10:39.284Z,10.48
2023-04-15T18:13:07.477Z,11.93
2023-04-15T18:15:36.873Z,14.05
2023-04-15T18:18:05.645Z,11.10
2023-04-15T18:20:33.636Z,19.45
2023-04-15T18:23:01.371Z,20.90
2023-04-15T18:25:38.635Z,19.33
2023-04-15T18:28:08.003Z,21.50
2023-04-15T18:30:36.272Z,21.87
2023-04-15T18:33:04.354Z,24.77
2023-04-15T18:35:33.365Z,23.70
2023-04-15T18:38:02.443Z,25.48
2023-04-15T18:40:29.815Z,23.58
2023-04-15T18:42:57.693Z,27.95
2023-04-15T18:45:26.433Z,22.73
2023-04-15T18:47:56.852Z,25.20
2023-04-15T18:50:32.569Z,24.25
2023-04-15T18:53:03.763Z,26.60
2023-04-15T18:55:31.460Z,22.60
2023-04-15T18:58:08.736Z,26.27
2023-04-15T19:00:41.175Z,25.45
2023-04-15T19:03:10.797Z,24.85
2023-04-15T19:05:39.465Z,32.45
2023-04-15T19:08:07.671Z,33.53
2023-04-15T19:10:36.130Z,34.88
2023-04-15T19:13:05.249Z,35.20
2023-04-15T19:15:33.510Z,32.85
2023-04-15T19:18:02.883Z,34.08
2023-04-15T19:20:33.097Z,37.67
2023-04-15T19:25:40.198Z,34.92
2023-04-15T19:28:31.735Z,37.97
2023-04-15T19:31:01.797Z,37.22
2023-04-15T19:33:32.219Z,39.83
2023-04-15T19:36:06.546Z,40.47
2023-04-15T19:38:38.535Z,36.90
2023-04-15T19:41:08.273Z,39.15
2023-04-15T19:43:41.535Z,39.60
2023-04-15T19:46:10.377Z,34.58
2023-04-15T19:48:38.528Z,36.92
2023-04-15T19:51:09.305Z,36.80
2023-04-15T19:53:43.919Z,38.00
2023-04-15T19:56:12.522Z,37.00
2023-04-15T19:58:41.874Z,36.00
2023-04-15T20:01:12.753Z,33.97
2023-04-15T20:03:42.417Z,35.53
2023-04-15T20:06:10.583Z,36.60
2023-04-15T20:08:40.273Z,34.88
2023-04-15T20:11:10.701Z,36.63
2023-04-15T20:13:39.326Z,37.53
2023-04-15T20:16:18.093Z,36.85
2023-04-15T20:18:47.791Z,39.10
2023-04-15T20:28:36.664Z,34.83
2023-04-15T20:31:04.920Z,37.80
2023-04-15T20:33:32.827Z,39.60
2023-04-15T20:36:00.598Z,37.70
2023-04-15T20:38:29.178Z,37.25
2023-04-15T20:40:58.351Z,38.17
2023-04-15T20:43:26.762Z,35.42
2023-04-15T20:45:57.549Z,34.58
2023-04-15T20:48:26.508Z,32.95
2023-04-15T20:50:54.230Z,33.83
2023-04-15T20:53:22.728Z,33.13
2023-04-15T20:55:50.956Z,31.90
2023-04-15T20:58:19.184Z,31.08
2023-04-15T21:04:18.033Z,29.15
2023-04-15T21:10:05.153Z,27.23
2023-04-15T21:12:33.026Z,25.25
2023-04-15T21:15:00.485Z,27.87
2023-04-15T21:17:27.832Z,30.88
2023-04-15T21:19:55.774Z,30.62
2023-04-15T21:22:27.533Z,29.08
2023-04-15T21:24:54.821Z,28.55
2023-04-15T21:27:22.394Z,28.02
2023-04-15T21:29:49.646Z,26.33
2023-04-15T21:32:16.962Z,27.20
2023-04-15T21:34:44.537Z,28.12
2023-04-15T21:37:13.519Z,26.20
2023-04-15T21:39:40.751Z,27.73
2023-04-15T21:42:08.234Z,28.42
2023-04-15T21:44:35.359Z,28.73
2023-04-15T21:47:02.624Z,27.85
2023-04-15T21:49:30.297Z,27.73
2023-04-15T21:52:01.220Z,26.33
2023-04-15T21:54:28.723Z,26.50
2023-04-15T21:56:57.018Z,26.42
2023-04-15T21:59:24.242Z,26.95
2023-04-15T22:01:51.671Z,26.55
2023-04-15T22:04:19.317Z,27.77
2023-04-15T22:06:47.006Z,26.50
2023-04-15T22:09:16.987Z,29.63
2023-04-15T22:11:46.214Z,29.45
2023-04-15T22:14:13.990Z,33.10
2023-04-15T22:16:41.206Z,32.05
2023-04-15T22:19:09.972Z,27.58
2023-04-15T22:21:37.150Z,28.15
2023-04-15T22:24:34.048Z,27.87
2023-04-15T22:26:52.178Z,27.05
2023-04-15T22:29:19.373Z,23.80
2023-04-15T22:31:46.906Z,24.60
2023-04-15T22:34:22.002Z,24.85
2023-04-15T22:36:49.761Z,25.50
2023-04-15T22:39:18.291Z,24.77
2023-04-15T22:41:46.296Z,24.27
2023-04-15T22:44:13.583Z,27.45
2023-04-15T22:46:41.378Z,24.45
2023-04-15T22:49:09.687Z,23.90
2023-04-15T22:51:38.103Z,24.02
2023-04-15T22:54:05.677Z,15.18
2023-04-15T22:56:33.206Z,15.77
2023-04-15T22:59:00.505Z,12.13
2023-04-15T23:04:58.883Z,20.90
2023-04-15T23:10:57.653Z,21.17
2023-04-15T23:13:25.648Z,24.45
2023-04-15T23:15:52.823Z,24.40
2023-04-15T23:18:20.009Z,26.75
2023-04-15T23:20:47.559Z,24.08
2023-04-15T23:23:15.708Z,25.27
2023-04-15T23:25:42.926Z,19.58
2023-04-15T23:28:10.560Z,21.70
2023-04-15T23:30:38.293Z,20.55
2023-04-15T23:33:05.576Z,19.90
2023-04-15T23:35:32.998Z,19.02
2023-04-15T23:38:00.168Z,18.55
2023-04-15T23:40:27.430Z,18.55
2023-04-15T23:42:54.849Z,19.40
2023-04-15T23:45:22.138Z,19.00
2023-04-15T23:47:49.283Z,18.05
2023-04-15T23:50:17.071Z,17.98
2023-04-15T23:52:44.265Z,19.87
2023-04-15T23:55:11.412Z,19.73
2023-04-15T23:57:38.921Z,19.42
